Latest Weather Observations for Lucas Heights

IDN60901

Issued at 7:25 am EST Friday 1 August 2014 (issued every 10 minutes, with the page automatically refreshed every 10 minutes)

About weather observations | Map of Sydney area stations | Latest observations for Sydney area | Other Formats
Station Details ID: 066023 Name: LUCAS HEIGHTS AWS Lat: -34.05 Lon: 150.98 Height: 140.0 m
Data from the previous 72 hours. | See also: Recent months for locations in New South Wales
Date/Time
EST
Tmp

°C
App
Tmp
°C
Dew
Point
°C
Rel
Hum
%
Delta-T

°C
Wind Press
QNH
hPa
Press
MSL
hPa
Rain
since
9 am
mm
Dir
 
Spd
km/h
Gust
km/h
Spd
kts
Gust
kts
01/07:15am 13.9 9.4 -0.1 38 5.9 SW 13 22 7 12 1006.6 - 0.0
01/07:00am 14.6 8.9 -0.6 35 6.4 WSW 19 26 10 14 1006.2 - 0.0
01/06:45am 13.9 8.2 -1.1 35 6.2 WSW 19 30 10 16 1005.8 - 0.0
01/06:30am 15.4 10.0 -1.2 32 6.9 W 17 26 9 14 1005.4 - 0.0
01/06:15am 16.3 10.4 -0.7 31 7.2 WNW 20 32 11 17 1004.9 - 0.0
01/06:00am 15.2 9.3 -0.6 34 6.6 WNW 20 33 11 18 1004.6 - 0.0
01/05:45am 14.1 9.0 -1.6 34 6.4 NW 15 33 8 18 1004.5 - 0.0
01/05:30am 14.5 9.4 -1.6 33 6.6 NW 15 30 8 16 1004.4 - 0.0
01/05:15am 14.8 8.8 -1.5 32 6.7 NW 20 33 11 18 1004.5 - 0.0
01/05:00am 14.5 9.1 -1.6 33 6.6 NW 17 26 9 14 1004.4 - 0.0
01/04:45am 14.1 9.1 -1.4 34 6.3 NW 15 22 8 12 1004.2 - 0.0
01/04:30am 12.9 9.0 -1.8 36 5.9 N 9 19 5 10 1003.9 - 0.0
01/04:15am 12.9 7.8 -1.6 36 5.8 - 15 20 8 11 1003.8 - 0.0
01/04:00am 13.1 7.3 -1.5 36 5.9 N 19 24 10 13 1004.0 - 0.0
01/03:45am 13.0 7.0 -1.3 37 5.8 N 20 26 11 14 1004.2 - 0.0
01/03:30am 12.7 6.7 -1.2 38 5.6 N 20 26 11 14 1004.2 - 0.0
01/03:15am 12.8 7.0 -1.3 37 5.7 N 19 22 10 12 1004.2 - 0.0
01/03:00am 13.8 8.4 -1.3 35 6.2 N 17 22 9 12 1004.4 - 0.0
01/02:45am 14.1 8.7 -1.2 35 6.3 N 17 22 9 12 1004.5 - 0.0
01/02:30am 14.2 8.3 -1.1 35 6.3 N 20 28 11 15 1004.6 - 0.0
01/02:15am 14.6 8.7 -1.0 34 6.5 NNW 20 30 11 16 1004.7 - 0.0
01/02:00am 14.6 7.9 -0.9 34 6.4 NNW 24 33 13 18 1004.8 - 0.0
01/01:45am 14.8 8.1 -0.8 34 6.5 NNW 24 33 13 18 1005.0 - 0.0
01/01:30am 15.0 8.7 -0.7 34 6.6 NNW 22 30 12 16 1005.2 - 0.0
01/01:15am 15.3 9.0 -0.7 33 6.7 NNW 22 32 12 17 1005.3 - 0.0
01/01:00am 15.6 9.4 -0.6 33 6.8 NNW 22 33 12 18 1005.4 - 0.0
01/12:45am 15.8 9.2 -0.5 33 6.9 NNW 24 33 13 18 1005.4 - 0.0
01/12:30am 15.8 9.2 -0.4 33 6.9 NNW 24 33 13 18 1005.5 - 0.0
01/12:15am 15.3 9.1 -0.4 34 6.6 NNW 22 35 12 19 1005.7 - 0.0
01/12:00am 14.7 8.5 0.0 36 6.2 NNW 22 33 12 18 1005.8 - 0.0
 
Date/Time
EST
Tmp

°C
App
Tmp
°C
Dew
Point
°C
Rel
Hum
%
Delta-T

°C
Wind Press
QNH
hPa
Press
MSL
hPa
Rain
since
9 am
mm
Dir
 
Spd
km/h
Gust
km/h
Spd
kts
Gust
kts
31/11:45pm 14.4 8.8 -0.1 37 6.1 NNW 19 28 10 15 1006.1 - 0.0
31/11:30pm 15.0 9.4 -0.2 35 6.4 NNW 19 26 10 14 1006.3 - 0.0
31/11:15pm 15.7 9.9 -0.1 34 6.8 NNW 20 32 11 17 1006.3 - 0.0
31/11:00pm 16.2 9.3 0.0 33 7.0 NNW 26 39 14 21 1006.1 - 0.0
31/10:45pm 16.6 9.3 0.1 32 7.1 NNW 28 39 15 21 1006.1 - 0.0
31/10:30pm 16.7 8.7 0.2 32 7.2 NNW 32 46 17 25 1006.0 - 0.0
31/10:15pm 17.1 8.9 0.2 32 7.4 NNW 33 46 18 25 1006.0 - 0.0
31/10:00pm 17.1 8.5 0.3 32 7.3 NNW 35 46 19 25 1006.0 - 0.0
31/09:45pm 17.3 8.7 0.2 31 7.5 NNW 35 50 19 27 1006.0 - 0.0
31/09:30pm 17.5 8.9 0.2 31 7.6 NNW 35 54 19 29 1006.0 - 0.0
31/09:15pm 17.5 8.9 0.3 31 7.5 NNW 35 50 19 27 1006.2 - 0.0
31/09:00pm 17.7 9.1 0.3 31 7.6 NNW 35 50 19 27 1006.4 - 0.0
31/08:45pm 17.6 9.0 0.3 31 7.6 NW 35 48 19 26 1006.4 - 0.0
31/08:30pm 17.7 9.1 0.2 30 7.7 NW 35 44 19 24 1006.5 - 0.0
31/08:15pm 17.9 9.7 0.2 30 7.8 NW 33 46 18 25 1006.6 - 0.0
31/08:00pm 18.0 10.3 0.1 30 7.8 NW 30 41 16 22 1006.7 - 0.0
31/07:45pm 18.3 11.0 0.1 29 8.0 NW 28 41 15 22 1006.6 - 0.0
31/07:30pm 18.6 10.9 0.1 28 8.1 NNW 30 43 16 23 1006.5 - 0.0
31/07:15pm 18.8 10.6 0.2 28 8.2 NW 33 44 18 24 1006.5 - 0.0
31/07:00pm 19.0 10.9 0.0 28 8.4 NW 32 46 17 25 1006.5 - 0.0
31/06:45pm 18.9 11.2 -0.2 27 8.4 NW 30 44 16 24 1006.5 - 0.0
31/06:30pm 19.2 12.6 -0.2 27 8.5 NW 24 37 13 20 1006.5 - 0.0
31/06:15pm 19.5 12.9 -0.2 26 8.7 NW 24 35 13 19 1006.4 - 0.0
31/06:00pm 20.1 13.5 -0.5 25 9.1 NW 24 33 13 18 1006.4 - 0.0
31/05:45pm 20.6 13.6 -0.6 24 9.4 NW 26 39 14 21 1006.5 - 0.0
31/05:30pm 21.1 14.1 -0.8 23 9.7 NW 26 37 14 20 1006.5 - 0.0
31/05:15pm 21.6 13.8 -0.9 22 10.0 NW 30 50 16 27 1006.6 - 0.0
31/05:00pm 22.1 13.7 -1.0 21 10.3 NW 33 56 18 30 1006.5 - 0.0
31/04:45pm 22.5 14.1 -0.8 21 10.4 NW 33 57 18 31 1006.4 - 0.0
31/04:30pm 22.8 13.7 -0.6 21 10.5 NW 37 52 20 28 1006.4 - 0.0
31/04:15pm 22.9 14.6 -0.1 21 10.5 NW 33 50 18 27 1006.5 - 0.0
31/04:00pm 23.1 14.1 0.3 22 10.5 WNW 37 54 20 29 1006.7 - 0.0
31/03:45pm 23.2 14.6 0.5 22 10.5 WNW 35 54 19 29 1006.8 - 0.0
31/03:30pm 23.3 14.4 0.6 22 10.5 WNW 37 52 20 28 1006.9 - 0.0
31/03:15pm 23.3 13.2 0.3 22 10.6 WNW 43 70 23 38 1007.0 - 0.0
31/03:00pm 23.4 13.3 0.5 22 10.6 WNW 43 63 23 34 1007.1 - 0.0
31/02:45pm 23.4 13.1 0.5 22 10.6 WNW 44 67 24 36 1007.3 - 0.0
31/02:30pm 23.4 13.1 0.4 22 10.6 WNW 44 72 24 39 1007.5 - 0.0
31/02:15pm 23.4 12.7 -0.1 21 10.7 WNW 46 74 25 40 1007.6 - 0.0
31/02:00pm 23.6 12.9 -0.1 21 10.8 WNW 46 74 25 40 1007.8 - 0.0
31/01:45pm 23.6 12.5 0.1 21 10.8 WNW 48 76 26 41 1008.0 - 0.0
31/01:30pm 23.5 13.2 0.5 22 10.6 WNW 44 69 24 37 1008.3 - 0.0
31/01:15pm 23.6 14.4 1.3 23 10.5 WNW 39 61 21 33 1008.7 - 0.0
31/01:00pm 23.5 14.7 1.6 23 10.3 WNW 37 57 20 31 1009.1 - 0.0
31/12:45pm 23.2 14.5 2.0 25 10.1 WNW 37 52 20 28 1009.5 - 0.0
31/12:30pm 23.0 15.1 2.4 26 9.8 WNW 33 50 18 27 1009.8 - 0.0
31/12:15pm 22.4 14.8 4.0 30 9.0 WNW 33 57 18 31 1010.4 - 0.0
31/12:00pm 21.9 16.2 4.9 33 8.4 NNW 24 39 13 21 1010.9 - 0.0
31/11:45am 21.5 15.5 5.1 34 8.2 NNW 26 39 14 21 1011.4 - 0.0
31/11:30am 21.1 15.9 5.3 35 7.9 NNW 22 41 12 22 1011.8 - 0.0
31/11:15am 20.6 15.3 5.1 36 7.7 NW 22 37 12 20 1012.2 - 0.0
31/11:00am 20.1 12.9 4.8 36 7.5 NW 32 48 17 26 1012.5 - 0.0
31/10:45am 19.7 12.9 5.1 38 7.2 NW 30 50 16 27 1012.8 - 0.0
31/10:30am 19.1 14.3 5.8 41 6.6 NNW 20 33 11 18 1013.1 - 0.0
31/10:15am 18.6 14.9 6.3 44 6.1 NNW 15 28 8 15 1013.4 - 0.0
31/10:00am 18.0 14.7 6.4 46 5.8 NNW 13 22 7 12 1013.6 - 0.0
31/09:45am 17.1 13.4 6.2 48 5.4 NNW 15 30 8 16 1013.8 - 0.0
31/09:30am 16.3 11.2 5.9 50 5.1 NNW 22 33 12 18 1013.9 - 0.0
31/09:15am 16.0 10.5 5.9 51 4.9 NNW 24 37 13 20 1014.0 - 0.0
31/09:00am 15.4 10.7 6.2 54 4.5 NNW 20 32 11 17 1014.0 - 0.0
31/08:45am 14.8 9.7 5.9 55 4.3 NW 22 33 12 18 1014.2 - 0.0
31/08:30am 14.3 8.8 6.0 57 4.0 NW 24 33 13 18 1014.3 - 0.0
31/08:15am 13.7 8.6 6.0 59 3.7 NNW 22 32 12 17 1014.3 - 0.0
31/08:00am 12.9 7.0 5.8 62 3.4 NNW 26 35 14 19 1014.4 - 0.0
31/07:45am 12.6 6.3 5.6 62 3.3 NW 28 35 15 19 1014.4 - 0.0
31/07:30am 12.6 5.9 5.4 61 3.4 NNW 30 37 16 20 1014.3 - 0.0
31/07:15am 13.0 7.0 5.2 59 3.7 NW 26 35 14 19 1014.3 - 0.0
31/07:00am 13.3 7.3 5.2 58 3.8 NW 26 33 14 18 1014.3 - 0.0
31/06:45am 13.6 6.9 5.7 59 3.8 NW 30 37 16 20 1014.3 - 0.0
31/06:30am 12.9 5.3 5.9 62 3.3 NW 35 41 19 22 1014.2 - 0.0
31/06:15am 12.7 5.7 5.9 63 3.2 NW 32 39 17 21 1014.1 - 0.0
31/06:00am 12.8 5.8 6.1 64 3.2 NW 32 39 17 21 1014.0 - 0.0
31/05:45am 12.7 5.6 6.3 65 3.1 WNW 33 44 18 24 1014.0 - 0.0
31/05:30am 12.2 6.0 6.3 67 2.8 WNW 28 41 15 22 1014.0 - 0.0
31/05:15am 12.2 6.1 6.4 67 2.8 NW 28 33 15 18 1014.1 - 0.0
31/05:00am 12.0 5.5 6.7 70 2.5 NW 30 37 16 20 1014.2 - 0.0
31/04:45am 11.6 5.9 6.6 71 2.4 NNW 26 33 14 18 1014.3 - 0.0
31/04:30am 11.4 5.7 6.6 72 2.3 NW 26 32 14 17 1014.3 - 0.0
31/04:15am 11.5 6.2 6.7 72 2.3 NNW 24 30 13 16 1014.3 - 0.0
31/04:00am 11.7 6.0 6.9 72 2.3 NW 26 33 14 18 1014.3 - 0.0
31/03:45am 11.6 5.9 6.9 73 2.3 NW 26 32 14 17 1014.4 - 0.0
31/03:30am 11.6 6.0 7.0 73 2.2 NW 26 32 14 17 1014.5 - 0.0
31/03:15am 11.5 6.2 6.9 73 2.2 NW 24 32 13 17 1014.7 - 0.0
31/03:00am 11.4 6.5 7.0 74 2.1 NW 22 28 12 15 1014.8 - 0.0
31/02:45am 11.4 6.5 7.0 74 2.1 NNW 22 26 12 14 1014.9 - 0.0
31/02:30am 11.2 6.7 6.9 75 2.1 NNW 20 26 11 14 1015.1 - 0.0
31/02:15am 11.0 6.4 6.7 75 2.0 NNW 20 26 11 14 1015.4 - 0.0
31/02:00am 10.9 6.3 6.4 74 2.1 NNW 20 22 11 12 1015.5 - 0.0
31/01:45am 11.3 6.9 6.6 73 2.2 NNW 19 24 10 13 1015.6 - 0.0
31/01:30am 11.6 7.3 6.8 72 2.3 NNW 19 24 10 13 1015.8 - 0.0
31/01:15am 11.6 7.6 6.7 72 2.3 NNW 17 26 9 14 1015.9 - 0.0
31/01:00am 11.7 7.3 6.7 71 2.4 NNW 19 26 10 14 1016.0 - 0.0
31/12:45am 11.6 7.9 6.4 70 2.5 NNW 15 22 8 12 1016.2 - 0.0
31/12:30am 11.9 8.2 6.2 68 2.7 NNW 15 19 8 10 1016.4 - 0.0
31/12:15am 12.7 8.1 6.6 66 2.9 NNW 20 28 11 15 1016.6 - 0.0
31/12:00am 12.7 7.4 6.8 67 2.9 NNW 24 30 13 16 1016.7 - 0.0
 
Date/Time
EST
Tmp

°C
App
Tmp
°C
Dew
Point
°C
Rel
Hum
%
Delta-T

°C
Wind Press
QNH
hPa
Press
MSL
hPa
Rain
since
9 am
mm
Dir
 
Spd
km/h
Gust
km/h
Spd
kts
Gust
kts
30/11:45pm 12.7 7.8 6.7 67 2.9 NNW 22 26 12 14 1016.9 - 0.0
30/11:30pm 12.6 8.2 6.5 66 2.9 NNW 19 24 10 13 1017.1 - 0.0
30/11:15pm 12.8 8.7 6.4 65 3.1 NNW 17 22 9 12 1017.2 - 0.0
30/11:00pm 13.1 8.7 6.4 64 3.2 NNW 19 24 10 13 1017.3 - 0.0
30/10:45pm 13.4 8.4 6.6 63 3.3 NNW 22 26 12 14 1017.4 - 0.0
30/10:30pm 13.3 8.7 6.6 64 3.2 NNW 20 22 11 12 1017.4 - 0.0
30/10:15pm 12.9 8.4 6.1 63 3.2 NNW 19 22 10 12 1017.5 - 0.0
30/10:00pm 13.7 9.2 6.1 60 3.6 NW 19 22 10 12 1017.6 - 0.0
30/09:45pm 14.7 9.7 6.6 58 4.0 NW 22 26 12 14 1017.6 - 0.0
30/09:30pm 14.5 9.6 6.8 60 3.8 NW 22 26 12 14 1017.6 - 0.0
30/09:15pm 13.7 9.1 6.4 61 3.5 NNW 20 24 11 13 1017.6 - 0.0
30/09:00pm 13.8 9.7 6.4 61 3.6 NNW 17 20 9 11 1017.6 - 0.0
30/08:45pm 13.9 9.5 6.5 61 3.6 NNW 19 20 10 11 1017.7 - 0.0
30/08:30pm 13.7 9.7 6.6 62 3.4 NW 17 20 9 11 1017.8 - 0.0
30/08:15pm 13.6 10.3 6.3 61 3.5 NNW 13 19 7 10 1017.8 - 0.0
30/08:00pm 13.9 10.2 6.2 59 3.7 NNW 15 17 8 9 1017.8 - 0.0
30/07:45pm 14.7 11.0 6.3 57 4.1 NW 15 19 8 10 1017.7 - 0.0
30/07:30pm 15.3 12.0 6.5 55 4.3 WNW 13 19 7 10 1017.7 - 0.0
30/07:15pm 15.4 12.8 6.1 54 4.5 WNW 9 15 5 8 1017.7 - 0.0
30/07:00pm 16.3 13.4 6.3 51 4.9 W 11 15 6 8 1017.6 - 0.0
30/06:45pm 16.7 13.0 6.3 50 5.1 W 15 20 8 11 1017.4 - 0.0
30/06:30pm 17.2 12.6 6.3 48 5.4 W 20 26 11 14 1017.3 - 0.0
30/06:15pm 17.7 13.3 6.5 48 5.6 W 19 24 10 13 1016.9 - 0.0
30/06:00pm 17.8 13.8 6.6 48 5.6 W 17 19 9 10 1016.6 - 0.0
30/05:45pm 17.9 14.2 6.4 47 5.7 W 15 22 8 12 1016.4 - 0.0
30/05:30pm 18.4 15.1 6.4 45 6.0 W 13 17 7 9 1016.1 - 0.0
30/05:15pm 18.9 14.8 6.4 44 6.3 W 17 22 9 12 1015.9 - 0.0
30/05:00pm 19.5 15.8 6.4 42 6.6 WSW 15 28 8 15 1015.6 - 0.0
30/04:45pm 19.9 15.3 6.4 41 6.8 WSW 20 30 11 16 1015.5 - 0.0
30/04:30pm 20.2 15.8 6.5 41 6.9 WSW 19 30 10 16 1015.3 - 0.0
30/04:15pm 20.7 16.1 6.6 40 7.2 WSW 20 35 11 19 1015.2 - 0.0
30/04:00pm 20.9 15.9 6.6 39 7.3 WSW 22 33 12 18 1015.1 - 0.0
30/03:45pm 21.3 16.0 6.6 38 7.5 WSW 24 32 13 17 1014.9 - 0.0
30/03:30pm 21.5 17.0 6.8 38 7.5 WSW 20 30 11 16 1014.9 - 0.0
30/03:15pm 21.5 16.2 6.7 38 7.6 WSW 24 35 13 19 1015.0 - 0.0
30/03:00pm 21.6 16.7 6.8 38 7.6 WSW 22 33 12 18 1014.9 - 0.0
30/02:45pm 21.6 16.2 6.4 37 7.7 W 24 37 13 20 1015.0 - 0.0
30/02:30pm 21.9 17.3 6.7 37 7.8 W 20 33 11 18 1014.9 - 0.0
30/02:15pm 22.1 17.6 6.9 37 7.8 W 20 37 11 20 1014.8 - 0.0
30/02:00pm 21.9 17.6 7.0 38 7.7 WSW 19 37 10 20 1014.9 - 0.0
30/01:45pm 21.8 17.3 7.1 38 7.6 W 20 30 11 16 1015.0 - 0.0
30/01:30pm 21.7 16.8 7.1 39 7.5 W 22 33 12 18 1015.1 - 0.0
30/01:15pm 21.7 17.5 7.3 39 7.5 W 19 35 10 19 1015.3 - 0.0
30/01:00pm 21.4 16.5 7.1 39 7.4 W 22 33 12 18 1015.5 - 0.0
30/12:45pm 21.1 16.2 7.1 40 7.2 W 22 33 12 18 1015.8 - 0.0
30/12:30pm 20.9 15.7 7.2 41 7.1 W 24 35 13 19 1016.0 - 0.0
30/12:15pm 20.7 15.5 7.2 41 6.9 W 24 37 13 20 1016.2 - 0.0
30/12:00pm 20.8 16.4 7.4 42 6.9 W 20 35 11 19 1016.5 - 0.0
30/11:45am 20.3 14.7 7.2 42 6.7 W 26 35 14 19 1016.8 - 0.0
30/11:30am 20.3 14.8 7.5 43 6.6 WSW 26 37 14 20 1017.0 - 0.0
30/11:15am 19.9 15.1 7.4 44 6.4 W 22 35 12 19 1017.2 - 0.0
30/11:00am 19.4 13.4 7.0 44 6.3 W 28 37 15 20 1017.3 - 0.0
30/10:45am 19.1 13.5 7.0 45 6.1 W 26 41 14 22 1017.4 - 0.0
30/10:30am 18.9 14.6 6.9 45 6.1 W 19 30 10 16 1017.7 - 0.0
30/10:15am 18.4 14.0 6.7 46 5.9 W 19 39 10 21 1017.6 - 0.0
30/10:00am 18.1 12.0 6.6 47 5.8 W 28 44 15 24 1017.3 - 0.0
30/09:45am 17.5 10.4 6.3 47 5.5 W 33 44 18 24 1017.4 - 0.0
30/09:30am 17.0 11.2 6.2 49 5.3 WNW 26 37 14 20 1017.8 - 0.0
30/09:15am 16.5 11.4 6.1 50 5.1 WNW 22 33 12 18 1018.0 - 0.0
30/09:00am 15.9 11.2 5.9 51 4.9 NW 20 26 11 14 1018.2 - 0.0
30/08:45am 15.5 11.6 5.4 51 4.8 WNW 15 20 8 11 1018.3 - 0.0
30/08:30am 15.1 11.9 5.3 52 4.7 NW 11 17 6 9 1018.4 - 0.0
30/08:15am 14.5 10.6 5.3 54 4.4 NNW 15 22 8 12 1018.1 - 0.0
30/08:00am 13.9 8.6 5.1 55 4.1 NW 22 33 12 18 1017.7 - 0.0
30/07:45am 13.7 8.1 5.2 56 4.0 NW 24 33 13 18 1017.5 - 0.0
30/07:30am 12.9 8.2 5.1 59 3.6 NW 19 30 10 16 1017.7 - 0.0
30/07:15am 12.2 7.8 4.6 59 3.5 NW 17 30 9 16 1017.6 - 0.0
30/07:00am 12.0 7.8 3.9 57 3.7 NNW 15 24 8 13 1017.5 - 0.0
30/06:45am 13.7 10.0 4.4 53 4.3 WNW 13 30 7 16 1017.4 - 0.0
30/06:30am 15.0 8.6 5.1 51 4.7 W 28 41 15 22 1016.9 - 0.0
30/06:15am 15.3 8.1 5.1 50 4.8 W 32 48 17 26 1016.6 - 0.0
30/06:00am 15.3 7.2 5.2 51 4.8 W 37 61 20 33 1016.2 - 0.0
30/05:45am 15.2 5.4 5.1 51 4.8 W 46 61 25 33 1015.8 - 0.0
30/05:30am 15.3 5.4 5.0 50 4.9 W 46 57 25 31 1016.2 - 0.0
30/05:15am 15.4 7.2 4.9 49 5.0 W 37 46 20 25 1016.4 - 0.0
30/05:00am 15.5 8.1 4.8 49 5.1 W 33 44 18 24 1016.5 - 0.0
30/04:45am 15.8 7.6 4.7 47 5.3 WSW 37 50 20 27 1016.5 - 0.0
30/04:30am 15.4 6.8 4.5 48 5.1 WSW 39 50 21 27 1016.3 - 0.0
30/04:15am 13.9 6.2 3.6 50 4.7 WSW 33 48 18 26 1016.2 - 0.0
30/04:00am 13.8 7.4 3.3 49 4.7 W 26 37 14 20 1016.3 - 0.0
30/03:45am 13.8 8.2 3.6 50 4.6 W 22 26 12 14 1016.4 - 0.0
30/03:30am 13.6 8.4 3.7 51 4.5 W 20 24 11 13 1016.4 - 0.0
30/03:15am 13.4 8.4 3.8 52 4.4 WNW 19 24 10 13 1016.3 - 0.0
30/03:00am 13.3 9.5 3.9 53 4.3 NW 13 19 7 10 1016.3 - 0.0
30/02:45am 13.0 9.2 4.0 54 4.1 NW 13 15 7 8 1016.2 - 0.0
30/02:30am 12.6 8.8 4.1 56 3.9 NW 13 15 7 8 1016.1 - 0.0
30/02:15am 12.4 8.2 3.8 55 3.9 NW 15 17 8 9 1016.1 - 0.0
30/02:00am 12.9 8.0 3.9 54 4.1 NW 19 22 10 12 1016.0 - 0.0
30/01:45am 13.0 7.9 4.1 54 4.1 NW 20 24 11 13 1015.9 - 0.0
30/01:30am 12.9 7.8 4.1 55 4.0 NW 20 26 11 14 1016.0 - 0.0
30/01:15am 13.0 7.5 4.2 55 4.0 NW 22 26 12 14 1015.9 - 0.0
30/01:00am 13.0 7.5 4.1 54 4.1 NW 22 26 12 14 1015.9 - 0.0
30/12:45am 13.2 8.3 4.2 54 4.1 NNW 19 24 10 13 1016.0 - 0.0
30/12:30am 12.8 8.3 4.0 55 4.0 NNW 17 22 9 12 1015.9 - 0.0
30/12:15am 13.0 8.4 3.8 53 4.2 NNW 17 22 9 12 1015.9 - 0.0
30/12:00am 13.4 8.5 4.1 53 4.3 NNW 19 26 10 14 1015.9 - 0.0
 
Date/Time
EST
Tmp

°C
App
Tmp
°C
Dew
Point
°C
Rel
Hum
%
Delta-T

°C
Wind Press
QNH
hPa
Press
MSL
hPa
Rain
since
9 am
mm
Dir
 
Spd
km/h
Gust
km/h
Spd
kts
Gust
kts
29/11:45pm 13.6 8.7 4.1 52 4.4 NNW 19 26 10 14 1015.8 - 0.0
29/11:30pm 13.8 8.7 4.2 52 4.4 NNW 20 30 11 16 1015.8 - 0.0
29/11:15pm 13.7 8.6 4.1 52 4.4 NNW 20 28 11 15 1015.9 - 0.0
29/11:00pm 13.6 8.5 3.9 52 4.4 NNW 20 28 11 15 1015.8 - 0.0
29/10:45pm 13.8 8.7 3.9 51 4.5 NNW 20 30 11 16 1015.8 - 0.0
29/10:30pm 13.7 8.7 3.6 50 4.6 NNW 19 26 10 14 1015.8 - 0.0
29/10:15pm 14.0 8.8 3.5 49 4.8 NNW 20 30 11 16 1015.7 - 0.0
29/10:00pm 13.9 8.7 3.3 49 4.8 NNW 20 30 11 16 1015.7 - 0.0
29/09:45pm 13.7 8.6 3.1 48 4.8 NNW 19 26 10 14 1015.8 - 0.0
29/09:30pm 13.8 8.7 2.9 47 4.9 NNW 19 26 10 14 1015.8 - 0.0
29/09:15pm 13.6 8.8 2.4 46 5.0 NNW 17 26 9 14 1015.8 - 0.0
29/09:00pm 14.1 9.3 2.5 45 5.2 NNW 17 24 9 13 1015.9 - 0.0
29/08:45pm 14.0 8.7 2.1 44 5.3 NW 19 26 10 14 1015.8 - 0.0
29/08:30pm 14.2 9.7 2.0 43 5.4 NNW 15 22 8 12 1015.8 - 0.0
29/08:15pm 14.6 9.3 2.0 42 5.6 NW 19 26 10 14 1015.8 - 0.0
29/08:00pm 15.1 9.6 2.0 41 5.8 NW 20 28 11 15 1015.8 - 0.0
29/07:45pm 15.7 10.4 1.9 39 6.2 NW 19 24 10 13 1016.0 - 0.0
29/07:30pm 15.9 10.4 2.0 39 6.2 NW 20 30 11 16 1015.9 - 0.0
29/07:15pm 15.8 9.6 2.1 39 6.1 NW 24 28 13 15 1015.9 - 0.0
29/07:00pm 15.5 10.2 1.9 40 6.1 NW 19 24 10 13 1015.9 - 0.0
29/06:45pm 16.4 11.1 1.9 37 6.5 NW 19 26 10 14 1015.9 - 0.0
29/06:30pm 16.8 11.5 1.9 36 6.7 NW 19 26 10 14 1015.7 - 0.0
29/06:15pm 17.3 12.0 1.9 35 7.0 NW 19 26 10 14 1015.6 - 0.0
29/06:00pm 17.8 11.9 2.0 34 7.2 WNW 22 26 12 14 1015.4 - 0.0
29/05:45pm 18.3 12.8 1.9 33 7.5 WNW 20 26 11 14 1015.1 - 0.0
29/05:30pm 18.8 13.9 1.9 32 7.7 WNW 17 22 9 12 1014.9 - 0.0
29/05:15pm 19.3 14.0 1.9 31 8.0 WNW 19 24 10 13 1014.7 - 0.0
29/05:00pm 20.2 15.6 1.6 29 8.6 NW 15 24 8 13 1014.4 - 0.0
29/04:45pm 20.9 15.5 1.5 27 9.0 WNW 19 33 10 18 1014.1 - 0.0
29/04:30pm 21.4 16.0 1.5 26 9.2 WNW 19 30 10 16 1014.0 - 0.0
29/04:15pm 21.6 15.7 1.5 26 9.3 W 22 37 12 20 1014.0 - 0.0
29/04:00pm 21.8 15.9 1.9 27 9.3 W 22 33 12 18 1013.9 - 0.0
29/03:45pm 21.9 16.1 2.5 28 9.2 WNW 22 37 12 20 1013.6 - 0.0
29/03:30pm 21.8 16.1 2.6 28 9.1 WNW 22 32 12 17 1013.4 - 0.0
29/03:15pm 21.7 15.6 2.9 29 9.0 WNW 24 39 13 21 1013.0 - 0.0
29/03:00pm 21.7 15.3 3.3 30 8.8 NW 26 41 14 22 1012.7 - 0.0
29/02:45pm 21.0 16.1 4.3 33 8.1 NNW 19 33 10 18 1013.2 - 0.0
29/02:30pm 20.7 16.3 4.8 35 7.8 N 17 28 9 15 1013.5 - 0.0
29/02:15pm 20.4 16.0 4.8 36 7.7 N 17 26 9 14 1013.6 - 0.0
29/02:00pm 20.3 15.3 4.6 35 7.7 NNW 20 30 11 16 1013.7 - 0.0
29/01:45pm 19.9 14.9 4.6 36 7.4 N 20 33 11 18 1013.8 - 0.0
29/01:30pm 19.6 14.2 4.5 37 7.3 N 22 33 12 18 1014.2 - 0.0
29/01:15pm 19.4 14.4 4.6 37 7.2 NNW 20 30 11 16 1014.7 - 0.0
29/01:00pm 18.9 13.1 4.4 38 7.0 NNW 24 35 13 19 1015.1 - 0.0
29/12:45pm 18.1 11.8 4.0 39 6.7 NNW 26 41 14 22 1015.0 - 0.0
29/12:30pm 18.2 10.6 3.9 38 6.8 NNW 33 48 18 26 1014.8 - 0.0
29/12:15pm 18.3 11.3 4.3 39 6.7 NNW 30 44 16 24 1015.4 - 0.0
29/12:00pm 17.6 11.8 4.5 42 6.3 NNW 24 41 13 22 1015.8 - 0.0
29/11:45am 17.4 11.2 4.4 42 6.2 NNW 26 41 14 22 1016.0 - 0.0
29/11:30am 17.3 11.2 4.8 43 6.0 NNW 26 41 14 22 1016.3 - 0.0
29/11:15am 16.6 11.8 5.4 47 5.4 NNW 20 39 11 21 1016.7 - 0.0
29/11:00am 16.4 12.7 6.4 51 4.9 NNW 15 26 8 14 1017.1 - 0.0
29/10:45am 14.9 11.1 6.0 55 4.3 NNW 15 22 8 12 1017.3 - 0.0
29/10:30am 14.2 10.4 5.9 57 4.0 N 15 26 8 14 1017.5 - 0.0
29/10:15am 13.8 10.4 6.0 59 3.7 N 13 22 7 12 1017.8 - 0.0
29/10:00am 13.6 9.7 5.5 58 3.8 NNW 15 22 8 12 1018.0 - 0.0
29/09:45am 13.3 9.4 5.4 59 3.7 NNW 15 26 8 14 1018.1 - 0.0
29/09:30am 12.7 7.8 5.3 60 3.5 NNW 20 32 11 17 1018.1 - 0.0
29/09:15am 12.2 7.3 5.0 61 3.3 NNW 20 30 11 16 1018.2 - 0.0
29/09:00am 11.7 6.0 4.9 63 3.1 NNW 24 33 13 18 1018.2 - 0.0
29/08:45am 11.3 5.9 4.6 63 3.1 NW 22 26 12 14 1018.4 - 0.0
29/08:30am 11.1 5.7 4.6 64 3.0 NW 22 30 12 16 1018.2 - 0.0
29/08:15am 10.8 5.8 4.4 64 2.9 WNW 20 26 11 14 1018.1 - 0.0
29/08:00am 10.9 5.9 4.4 64 2.9 WNW 20 26 11 14 1018.2 - 0.0
29/07:45am 10.8 5.8 4.6 65 2.8 WNW 20 26 11 14 1018.2 - 0.0
29/07:30am 10.3 4.9 4.5 67 2.6 WNW 22 26 12 14 1018.3 - 0.0

Latest Capital City Observations: Canberra | Sydney | Melbourne | Brisbane | Adelaide | Perth | Hobart | Darwin

Other Formats:

Comma delimited format used in spreadsheet applications
http://www.bom.gov.au/fwo/IDN60901/IDN60901.95757.axf

JavaScript Object Notation format (JSON) in row-major order
http://www.bom.gov.au/fwo/IDN60901/IDN60901.95757.json